sensor_id;sensor_type;location;lat;lon;timestamp;pressure;altitude;pressure_sealevel;temperature;humidity
27613;BME280;15036;48.094;-1.690;2023-04-04T00:01:27;101821.78;;;13.47;45.13
27613;BME280;15036;48.094;-1.690;2023-04-04T00:03:52;101822.72;;;13.54;44.96
27613;BME280;15036;48.094;-1.690;2023-04-04T00:06:18;101823.66;;;13.61;44.85
27613;BME280;15036;48.094;-1.690;2023-04-04T00:08:44;101822.78;;;13.61;44.78
27613;BME280;15036;48.094;-1.690;2023-04-04T00:11:09;101828.09;;;13.62;44.69
27613;BME280;15036;48.094;-1.690;2023-04-04T00:13:35;101822.91;;;13.53;44.82
27613;BME280;15036;48.094;-1.690;2023-04-04T00:16:00;101824.50;;;13.62;44.70
27613;BME280;15036;48.094;-1.690;2023-04-04T00:18:26;101830.31;;;13.23;45.45
27613;BME280;15036;48.094;-1.690;2023-04-04T00:20:51;101828.31;;;13.46;45.10
27613;BME280;15036;48.094;-1.690;2023-04-04T00:23:17;101822.75;;;13.40;45.14
27613;BME280;15036;48.094;-1.690;2023-04-04T00:25:42;101826.00;;;13.29;45.32
27613;BME280;15036;48.094;-1.690;2023-04-04T00:28:13;101821.94;;;13.25;45.38
27613;BME280;15036;48.094;-1.690;2023-04-04T00:30:39;101819.09;;;13.33;45.41
27613;BME280;15036;48.094;-1.690;2023-04-04T00:33:04;101828.16;;;13.19;45.65
27613;BME280;15036;48.094;-1.690;2023-04-04T00:35:30;101827.50;;;13.17;45.33
27613;BME280;15036;48.094;-1.690;2023-04-04T00:37:55;101825.31;;;13.27;45.31
27613;BME280;15036;48.094;-1.690;2023-04-04T00:40:21;101830.03;;;13.18;45.48
27613;BME280;15036;48.094;-1.690;2023-04-04T00:42:48;101830.03;;;13.18;45.30
27613;BME280;15036;48.094;-1.690;2023-04-04T00:45:14;101826.34;;;13.26;45.12
27613;BME280;15036;48.094;-1.690;2023-04-04T00:47:41;101832.41;;;13.21;45.22
27613;BME280;15036;48.094;-1.690;2023-04-04T00:50:07;101831.16;;;13.24;45.15
27613;BME280;15036;48.094;-1.690;2023-04-04T00:52:33;101826.34;;;13.26;45.29
27613;BME280;15036;48.094;-1.690;2023-04-04T00:54:58;101831.19;;;13.09;45.48
27613;BME280;15036;48.094;-1.690;2023-04-04T00:57:26;101828.81;;;13.06;45.42
27613;BME280;15036;48.094;-1.690;2023-04-04T00:59:52;101817.41;;;13.17;45.43
27613;BME280;15036;48.094;-1.690;2023-04-04T01:02:18;101828.41;;;12.94;45.70
27613;BME280;15036;48.094;-1.690;2023-04-04T01:04:43;101824.81;;;12.94;45.63
27613;BME280;15036;48.094;-1.690;2023-04-04T01:07:09;101831.03;;;12.88;45.86
27613;BME280;15036;48.094;-1.690;2023-04-04T01:09:35;101829.25;;;12.80;46.00
27613;BME280;15036;48.094;-1.690;2023-04-04T01:12:01;101825.94;;;12.85;45.90
27613;BME280;15036;48.094;-1.690;2023-04-04T01:14:26;101833.34;;;12.99;45.67
27613;BME280;15036;48.094;-1.690;2023-04-04T01:16:52;101832.19;;;12.79;45.96
27613;BME280;15036;48.094;-1.690;2023-04-04T01:19:29;101835.19;;;12.84;45.71
27613;BME280;15036;48.094;-1.690;2023-04-04T01:21:58;101831.22;;;12.72;45.93
27613;BME280;15036;48.094;-1.690;2023-04-04T01:24:27;101829.44;;;12.79;45.89
27613;BME280;15036;48.094;-1.690;2023-04-04T01:26:56;101833.19;;;12.63;46.11
27613;BME280;15036;48.094;-1.690;2023-04-04T01:29:22;101825.06;;;12.70;46.17
27613;BME280;15036;48.094;-1.690;2023-04-04T01:31:53;101825.44;;;12.67;45.93
27613;BME280;15036;48.094;-1.690;2023-04-04T01:34:43;101822.78;;;12.59;46.17
27613;BME280;15036;48.094;-1.690;2023-04-04T01:37:42;101829.34;;;12.35;46.67
27613;BME280;15036;48.094;-1.690;2023-04-04T01:40:17;101829.47;;;12.42;46.47
27613;BME280;15036;48.094;-1.690;2023-04-04T01:42:46;101839.59;;;12.56;46.24
27613;BME280;15036;48.094;-1.690;2023-04-04T01:45:12;101829.00;;;12.53;46.21
27613;BME280;15036;48.094;-1.690;2023-04-04T01:47:39;101832.97;;;12.50;46.28
27613;BME280;15036;48.094;-1.690;2023-04-04T01:50:08;101835.03;;;12.48;46.22
27613;BME280;15036;48.094;-1.690;2023-04-04T01:52:34;101833.81;;;12.51;46.21
27613;BME280;15036;48.094;-1.690;2023-04-04T01:55:00;101829.75;;;12.47;46.47
27613;BME280;15036;48.094;-1.690;2023-04-04T01:57:25;101827.41;;;12.44;46.29
27613;BME280;15036;48.094;-1.690;2023-04-04T01:59:51;101832.38;;;12.40;46.58
27613;BME280;15036;48.094;-1.690;2023-04-04T02:02:16;101832.69;;;12.45;46.35
27613;BME280;15036;48.094;-1.690;2023-04-04T02:04:41;101829.22;;;12.29;46.78
27613;BME280;15036;48.094;-1.690;2023-04-04T02:07:07;101831.63;;;12.46;46.19
27613;BME280;15036;48.094;-1.690;2023-04-04T02:09:33;101835.31;;;12.39;46.57
27613;BME280;15036;48.094;-1.690;2023-04-04T02:11:58;101825.94;;;12.33;46.73
27613;BME280;15036;48.094;-1.690;2023-04-04T02:14:24;101828.50;;;12.35;46.62
27613;BME280;15036;48.094;-1.690;2023-04-04T02:16:49;101826.28;;;12.30;46.49
27613;BME280;15036;48.094;-1.690;2023-04-04T02:19:17;101825.72;;;12.20;46.88
27613;BME280;15036;48.094;-1.690;2023-04-04T02:21:43;101835.00;;;12.34;46.38
27613;BME280;15036;48.094;-1.690;2023-04-04T02:24:08;101827.41;;;12.21;46.70
27613;BME280;15036;48.094;-1.690;2023-04-04T02:26:34;101823.41;;;12.32;46.57
27613;BME280;15036;48.094;-1.690;2023-04-04T02:28:59;101816.47;;;12.21;46.63
27613;BME280;15036;48.094;-1.690;2023-04-04T02:31:24;101819.72;;;12.16;46.76
27613;BME280;15036;48.094;-1.690;2023-04-04T02:33:50;101822.00;;;12.13;46.69
27613;BME280;15036;48.094;-1.690;2023-04-04T02:36:16;101816.75;;;12.26;46.64
27613;BME280;15036;48.094;-1.690;2023-04-04T02:38:41;101817.84;;;12.17;46.76
27613;BME280;15036;48.094;-1.690;2023-04-04T02:41:06;101816.03;;;12.09;47.04
27613;BME280;15036;48.094;-1.690;2023-04-04T02:43:32;101818.06;;;12.15;46.87
27613;BME280;15036;48.094;-1.690;2023-04-04T02:45:57;101821.47;;;12.17;46.73
27613;BME280;15036;48.094;-1.690;2023-04-04T02:48:23;101823.94;;;12.04;47.02
27613;BME280;15036;48.094;-1.690;2023-04-04T02:50:49;101818.09;;;12.07;47.10
27613;BME280;15036;48.094;-1.690;2023-04-04T02:53:15;101822.97;;;11.97;47.29
27613;BME280;15036;48.094;-1.690;2023-04-04T02:55:41;101825.66;;;12.05;46.97
27613;BME280;15036;48.094;-1.690;2023-04-04T02:58:07;101824.97;;;12.03;46.99
27613;BME280;15036;48.094;-1.690;2023-04-04T03:00:32;101821.03;;;12.06;46.86
27613;BME280;15036;48.094;-1.690;2023-04-04T03:02:57;101820.97;;;12.14;46.73
27613;BME280;15036;48.094;-1.690;2023-04-04T03:05:23;101824.78;;;12.05;46.98
27613;BME280;15036;48.094;-1.690;2023-04-04T03:07:56;101831.94;;;12.14;46.57
27613;BME280;15036;48.094;-1.690;2023-04-04T03:10:25;101824.25;;;12.09;46.67
27613;BME280;15036;48.094;-1.690;2023-04-04T03:12:52;101824.50;;;12.00;46.94
27613;BME280;15036;48.094;-1.690;2023-04-04T03:15:18;101829.78;;;12.01;46.90
27613;BME280;15036;48.094;-1.690;2023-04-04T03:17:44;101831.66;;;12.01;47.18
27613;BME280;15036;48.094;-1.690;2023-04-04T03:20:11;101827.59;;;11.97;47.10
27613;BME280;15036;48.094;-1.690;2023-04-04T03:22:36;101831.91;;;11.91;46.99
27613;BME280;15036;48.094;-1.690;2023-04-04T03:25:02;101826.19;;;12.01;46.96
27613;BME280;15036;48.094;-1.690;2023-04-04T03:27:30;101825.53;;;11.99;46.80
27613;BME280;15036;48.094;-1.690;2023-04-04T03:29:56;101825.22;;;11.94;47.14
27613;BME280;15036;48.094;-1.690;2023-04-04T03:32:22;101824.00;;;11.96;46.84
27613;BME280;15036;48.094;-1.690;2023-04-04T03:34:47;101823.88;;;11.90;47.05
27613;BME280;15036;48.094;-1.690;2023-04-04T03:37:13;101837.97;;;11.79;47.30
27613;BME280;15036;48.094;-1.690;2023-04-04T03:39:38;101821.81;;;11.92;46.90
27613;BME280;15036;48.094;-1.690;2023-04-04T03:42:04;101827.34;;;11.84;47.31
27613;BME280;15036;48.094;-1.690;2023-04-04T03:44:29;101820.34;;;11.81;47.22
27613;BME280;15036;48.094;-1.690;2023-04-04T03:46:55;101826.06;;;11.94;46.82
27613;BME280;15036;48.094;-1.690;2023-04-04T03:49:20;101818.66;;;11.80;47.11
27613;BME280;15036;48.094;-1.690;2023-04-04T03:51:46;101828.13;;;11.92;47.04
27613;BME280;15036;48.094;-1.690;2023-04-04T03:54:11;101825.28;;;11.86;46.93
27613;BME280;15036;48.094;-1.690;2023-04-04T03:56:37;101832.53;;;11.71;47.28
27613;BME280;15036;48.094;-1.690;2023-04-04T03:59:02;101826.91;;;11.72;47.21
27613;BME280;15036;48.094;-1.690;2023-04-04T04:01:28;101832.16;;;11.82;47.12
27613;BME280;15036;48.094;-1.690;2023-04-04T04:03:53;101832.38;;;11.72;47.21
27613;BME280;15036;48.094;-1.690;2023-04-04T04:06:19;101835.06;;;11.80;47.03
27613;BME280;15036;48.094;-1.690;2023-04-04T04:08:49;101840.84;;;11.85;47.08
27613;BME280;15036;48.094;-1.690;2023-04-04T04:11:14;101841.75;;;11.78;47.23
27613;BME280;15036;48.094;-1.690;2023-04-04T04:13:40;101837.19;;;11.93;46.74
27613;BME280;15036;48.094;-1.690;2023-04-04T04:16:05;101850.31;;;11.75;47.07
27613;BME280;15036;48.094;-1.690;2023-04-04T04:18:31;101848.88;;;11.87;46.83
27613;BME280;15036;48.094;-1.690;2023-04-04T04:20:57;101847.47;;;11.91;47.07
27613;BME280;15036;48.094;-1.690;2023-04-04T04:23:29;101855.25;;;11.79;47.54
27613;BME280;15036;48.094;-1.690;2023-04-04T04:25:55;101858.34;;;11.76;47.72
27613;BME280;15036;48.094;-1.690;2023-04-04T04:28:21;101855.63;;;11.76;47.83
27613;BME280;15036;48.094;-1.690;2023-04-04T04:30:48;101854.13;;;11.66;48.07
27613;BME280;15036;48.094;-1.690;2023-04-04T04:33:13;101855.63;;;11.29;48.59
27613;BME280;15036;48.094;-1.690;2023-04-04T04:35:38;101854.28;;;11.17;48.81
27613;BME280;15036;48.094;-1.690;2023-04-04T04:38:05;101859.91;;;11.24;48.91
27613;BME280;15036;48.094;-1.690;2023-04-04T04:40:31;101862.84;;;11.22;48.76
27613;BME280;15036;48.094;-1.690;2023-04-04T04:42:57;101850.22;;;11.13;48.92
27613;BME280;15036;48.094;-1.690;2023-04-04T04:45:22;101857.59;;;11.05;49.32
27613;BME280;15036;48.094;-1.690;2023-04-04T04:47:48;101857.59;;;11.05;49.22
27613;BME280;15036;48.094;-1.690;2023-04-04T04:50:14;101854.53;;;11.00;49.43
27613;BME280;15036;48.094;-1.690;2023-04-04T04:52:40;101856.28;;;10.93;49.51
27613;BME280;15036;48.094;-1.690;2023-04-04T04:55:06;101860.69;;;10.94;49.32
27613;BME280;15036;48.094;-1.690;2023-04-04T04:57:32;101861.22;;;10.89;49.42
27613;BME280;15036;48.094;-1.690;2023-04-04T05:00:00;101856.09;;;10.86;49.44
27613;BME280;15036;48.094;-1.690;2023-04-04T05:02:26;101865.66;;;10.90;49.31
27613;BME280;15036;48.094;-1.690;2023-04-04T05:04:52;101862.75;;;10.84;49.66
27613;BME280;15036;48.094;-1.690;2023-04-04T05:07:17;101862.94;;;10.90;49.73
27613;BME280;15036;48.094;-1.690;2023-04-04T05:13:32;101870.13;;;10.91;49.47
27613;BME280;15036;48.094;-1.690;2023-04-04T05:15:57;101866.84;;;10.88;49.39
27613;BME280;15036;48.094;-1.690;2023-04-04T05:18:23;101873.31;;;11.11;49.19
27613;BME280;15036;48.094;-1.690;2023-04-04T05:20:53;101871.41;;;11.11;49.10
27613;BME280;15036;48.094;-1.690;2023-04-04T05:23:18;101873.13;;;11.04;49.20
27613;BME280;15036;48.094;-1.690;2023-04-04T05:25:44;101876.06;;;10.95;49.24
27613;BME280;15036;48.094;-1.690;2023-04-04T05:28:09;101869.94;;;10.85;49.50
27613;BME280;15036;48.094;-1.690;2023-04-04T05:30:34;101877.78;;;10.80;49.53
27613;BME280;15036;48.094;-1.690;2023-04-04T05:33:00;101887.53;;;10.82;49.70
27613;BME280;15036;48.094;-1.690;2023-04-04T05:35:25;101888.00;;;11.02;49.25
27613;BME280;15036;48.094;-1.690;2023-04-04T05:37:51;101889.72;;;10.95;49.58
27613;BME280;15036;48.094;-1.690;2023-04-04T05:40:16;101896.59;;;10.67;50.14
27613;BME280;15036;48.094;-1.690;2023-04-04T05:42:41;101895.03;;;10.64;50.20
27613;BME280;15036;48.094;-1.690;2023-04-04T05:45:08;101894.91;;;10.58;50.36
27613;BME280;15036;48.094;-1.690;2023-04-04T05:47:34;101893.00;;;10.66;50.16
27613;BME280;15036;48.094;-1.690;2023-04-04T05:50:00;101897.06;;;10.86;49.60
27613;BME280;15036;48.094;-1.690;2023-04-04T05:52:25;101899.13;;;10.84;49.56
27613;BME280;15036;48.094;-1.690;2023-04-04T05:54:51;101903.72;;;10.92;49.47
27613;BME280;15036;48.094;-1.690;2023-04-04T05:57:16;101912.63;;;10.78;49.83
27613;BME280;15036;48.094;-1.690;2023-04-04T05:59:42;101924.59;;;10.69;49.93
27613;BME280;15036;48.094;-1.690;2023-04-04T06:02:07;101933.28;;;10.80;49.94
27613;BME280;15036;48.094;-1.690;2023-04-04T06:04:33;101927.13;;;10.70;50.06
27613;BME280;15036;48.094;-1.690;2023-04-04T06:06:59;101927.13;;;10.54;50.41
27613;BME280;15036;48.094;-1.690;2023-04-04T06:09:25;101924.25;;;10.39;50.74
27613;BME280;15036;48.094;-1.690;2023-04-04T06:11:51;101942.50;;;10.55;50.50
27613;BME280;15036;48.094;-1.690;2023-04-04T06:14:16;101939.28;;;10.60;50.46
27613;BME280;15036;48.094;-1.690;2023-04-04T06:16:42;101933.44;;;10.46;50.62
27613;BME280;15036;48.094;-1.690;2023-04-04T06:19:07;101943.00;;;10.51;50.64
27613;BME280;15036;48.094;-1.690;2023-04-04T06:21:33;101942.84;;;10.60;50.37
27613;BME280;15036;48.094;-1.690;2023-04-04T06:23:58;101945.06;;;10.48;50.59
27613;BME280;15036;48.094;-1.690;2023-04-04T06:26:24;101947.97;;;10.63;49.99
27613;BME280;15036;48.094;-1.690;2023-04-04T06:28:51;101954.13;;;10.65;50.14
27613;BME280;15036;48.094;-1.690;2023-04-04T06:31:16;101961.09;;;10.92;49.59
27613;BME280;15036;48.094;-1.690;2023-04-04T06:33:42;101958.91;;;10.87;49.76
27613;BME280;15036;48.094;-1.690;2023-04-04T06:36:07;101961.78;;;10.78;49.64
27613;BME280;15036;48.094;-1.690;2023-04-04T06:38:33;101960.25;;;10.91;49.30
27613;BME280;15036;48.094;-1.690;2023-04-04T06:40:58;101959.38;;;11.07;48.93
27613;BME280;15036;48.094;-1.690;2023-04-04T06:43:24;101961.06;;;11.16;48.69
27613;BME280;15036;48.094;-1.690;2023-04-04T06:45:49;101968.06;;;11.18;48.64
27613;BME280;15036;48.094;-1.690;2023-04-04T06:48:15;101962.41;;;11.28;48.20
27613;BME280;15036;48.094;-1.690;2023-04-04T06:50:40;101958.03;;;11.03;48.28
27613;BME280;15036;48.094;-1.690;2023-04-04T10:28:20;101960.19;;;16.52;33.71
27613;BME280;15036;48.094;-1.690;2023-04-04T10:30:50;101950.88;;;16.53;33.48
27613;BME280;15036;48.094;-1.690;2023-04-04T10:33:31;101953.34;;;16.48;33.42
27613;BME280;15036;48.094;-1.690;2023-04-04T10:36:02;101942.00;;;16.58;33.15
27613;BME280;15036;48.094;-1.690;2023-04-04T10:38:41;101945.00;;;16.89;33.40
27613;BME280;15036;48.094;-1.690;2023-04-04T10:41:07;101937.56;;;16.89;33.23
27613;BME280;15036;48.094;-1.690;2023-04-04T10:43:39;101943.72;;;17.11;32.62
27613;BME280;15036;48.094;-1.690;2023-04-04T10:46:15;101941.81;;;17.05;32.56
27613;BME280;15036;48.094;-1.690;2023-04-04T10:48:42;101934.59;;;17.10;31.95
27613;BME280;15036;48.094;-1.690;2023-04-04T10:51:10;101933.72;;;17.16;31.81
27613;BME280;15036;48.094;-1.690;2023-04-04T10:53:37;101932.25;;;17.20;31.61
27613;BME280;15036;48.094;-1.690;2023-04-04T10:56:05;101933.47;;;17.44;31.19
27613;BME280;15036;48.094;-1.690;2023-04-04T10:58:31;101930.69;;;17.70;30.89
27613;BME280;15036;48.094;-1.690;2023-04-04T11:01:03;101932.03;;;17.55;31.14
27613;BME280;15036;48.094;-1.690;2023-04-04T11:03:31;101922.66;;;17.62;30.90
27613;BME280;15036;48.094;-1.690;2023-04-04T11:05:58;101926.59;;;17.86;30.78
27613;BME280;15036;48.094;-1.690;2023-04-04T11:08:26;101918.28;;;17.92;29.87
27613;BME280;15036;48.094;-1.690;2023-04-04T11:10:54;101915.47;;;18.05;30.63
27613;BME280;15036;48.094;-1.690;2023-04-04T11:29:19;101900.78;;;17.54;30.45
27613;BME280;15036;48.094;-1.690;2023-04-04T11:31:47;101904.56;;;17.66;30.91
27613;BME280;15036;48.094;-1.690;2023-04-04T11:34:14;101892.09;;;18.01;30.72
27613;BME280;15036;48.094;-1.690;2023-04-04T11:36:53;101895.03;;;18.06;30.66
27613;BME280;15036;48.094;-1.690;2023-04-04T11:39:23;101901.72;;;18.30;30.33
27613;BME280;15036;48.094;-1.690;2023-04-04T11:44:25;101881.38;;;18.56;30.06
27613;BME280;15036;48.094;-1.690;2023-04-04T11:49:41;101886.59;;;18.33;30.33
27613;BME280;15036;48.094;-1.690;2023-04-04T11:52:10;101885.31;;;18.35;29.59
27613;BME280;15036;48.094;-1.690;2023-04-04T11:54:36;101882.22;;;18.18;29.69
27613;BME280;15036;48.094;-1.690;2023-04-04T11:57:04;101877.00;;;18.35;29.37
27613;BME280;15036;48.094;-1.690;2023-04-04T11:59:30;101876.91;;;18.55;29.28
27613;BME280;15036;48.094;-1.690;2023-04-04T12:01:56;101871.72;;;18.65;29.55
27613;BME280;15036;48.094;-1.690;2023-04-04T12:04:23;101870.25;;;18.62;29.49
27613;BME280;15036;48.094;-1.690;2023-04-04T12:06:50;101870.66;;;18.90;28.72
27613;BME280;15036;48.094;-1.690;2023-04-04T12:09:16;101874.22;;;19.16;27.76
27613;BME280;15036;48.094;-1.690;2023-04-04T12:11:45;101874.84;;;19.18;26.66
27613;BME280;15036;48.094;-1.690;2023-04-04T12:14:18;101873.69;;;19.50;26.67
27613;BME280;15036;48.094;-1.690;2023-04-04T12:16:44;101873.31;;;19.82;26.56
27613;BME280;15036;48.094;-1.690;2023-04-04T12:19:11;101867.41;;;19.61;27.01
27613;BME280;15036;48.094;-1.690;2023-04-04T12:21:40;101867.91;;;19.69;27.53
27613;BME280;15036;48.094;-1.690;2023-04-04T12:24:09;101854.44;;;19.73;27.14
27613;BME280;15036;48.094;-1.690;2023-04-04T12:26:39;101857.59;;;19.95;27.10
27613;BME280;15036;48.094;-1.690;2023-04-04T12:29:08;101852.81;;;20.13;26.34
27613;BME280;15036;48.094;-1.690;2023-04-04T12:31:37;101852.94;;;20.36;26.24
27613;BME280;15036;48.094;-1.690;2023-04-04T12:34:03;101841.84;;;20.36;26.03
27613;BME280;15036;48.094;-1.690;2023-04-04T12:36:29;101852.56;;;20.86;25.93
27613;BME280;15036;48.094;-1.690;2023-04-04T12:39:05;101838.03;;;20.72;25.18
27613;BME280;15036;48.094;-1.690;2023-04-04T12:41:32;101837.50;;;21.16;25.41
27613;BME280;15036;48.094;-1.690;2023-04-04T12:44:05;101837.03;;;21.19;24.96
27613;BME280;15036;48.094;-1.690;2023-04-04T12:46:35;101838.31;;;21.40;25.53
27613;BME280;15036;48.094;-1.690;2023-04-04T12:49:04;101841.28;;;21.85;24.90
27613;BME280;15036;48.094;-1.690;2023-04-04T12:51:31;101840.25;;;22.02;23.77
27613;BME280;15036;48.094;-1.690;2023-04-04T12:53:59;101842.22;;;22.18;23.62
27613;BME280;15036;48.094;-1.690;2023-04-04T12:56:26;101835.91;;;22.68;22.70
27613;BME280;15036;48.094;-1.690;2023-04-04T12:58:52;101839.78;;;23.55;23.29
27613;BME280;15036;48.094;-1.690;2023-04-04T13:01:19;101833.41;;;24.24;22.17
27613;BME280;15036;48.094;-1.690;2023-04-04T13:03:45;101826.22;;;24.65;21.43
27613;BME280;15036;48.094;-1.690;2023-04-04T13:06:14;101823.13;;;25.35;20.79
27613;BME280;15036;48.094;-1.690;2023-04-04T13:08:50;101826.06;;;25.55;20.46
27613;BME280;15036;48.094;-1.690;2023-04-04T13:11:16;101820.63;;;25.90;19.80
27613;BME280;15036;48.094;-1.690;2023-04-04T13:13:42;101814.28;;;26.25;19.41
27613;BME280;15036;48.094;-1.690;2023-04-04T13:18:55;101812.66;;;26.99;18.61
27613;BME280;15036;48.094;-1.690;2023-04-04T13:21:21;101818.53;;;27.08;18.43
27613;BME280;15036;48.094;-1.690;2023-04-04T13:23:46;101814.06;;;27.02;18.19
27613;BME280;15036;48.094;-1.690;2023-04-04T13:26:12;101812.66;;;27.04;18.29
27613;BME280;15036;48.094;-1.690;2023-04-04T13:28:38;101812.66;;;26.94;18.71
27613;BME280;15036;48.094;-1.690;2023-04-04T13:31:04;101805.56;;;27.32;18.36
27613;BME280;15036;48.094;-1.690;2023-04-04T13:33:30;101807.06;;;26.54;18.69
27613;BME280;15036;48.094;-1.690;2023-04-04T13:35:56;101805.38;;;26.78;18.41
27613;BME280;15036;48.094;-1.690;2023-04-04T13:38:25;101805.91;;;27.15;18.72
27613;BME280;15036;48.094;-1.690;2023-04-04T13:40:50;101805.06;;;27.15;18.52
27613;BME280;15036;48.094;-1.690;2023-04-04T13:43:16;101804.81;;;27.85;18.11
27613;BME280;15036;48.094;-1.690;2023-04-04T13:45:42;101792.38;;;28.50;17.81
27613;BME280;15036;48.094;-1.690;2023-04-04T13:48:08;101794.19;;;28.70;17.33
27613;BME280;15036;48.094;-1.690;2023-04-04T13:50:38;101806.81;;;29.01;17.15
27613;BME280;15036;48.094;-1.690;2023-04-04T13:53:03;101799.63;;;29.19;16.95
27613;BME280;15036;48.094;-1.690;2023-04-04T13:55:29;101793.72;;;28.53;17.16
27613;BME280;15036;48.094;-1.690;2023-04-04T13:57:55;101778.97;;;29.28;16.88
27613;BME280;15036;48.094;-1.690;2023-04-04T14:00:20;101793.88;;;29.52;16.63
27613;BME280;15036;48.094;-1.690;2023-04-04T14:02:46;101785.09;;;29.82;16.60
27613;BME280;15036;48.094;-1.690;2023-04-04T14:05:13;101789.28;;;30.04;16.37
27613;BME280;15036;48.094;-1.690;2023-04-04T14:07:39;101790.34;;;30.08;16.06
27613;BME280;15036;48.094;-1.690;2023-04-04T14:10:05;101787.63;;;29.37;16.50
27613;BME280;15036;48.094;-1.690;2023-04-04T14:12:32;101782.47;;;30.28;16.50
27613;BME280;15036;48.094;-1.690;2023-04-04T14:14:57;101781.44;;;30.19;16.40
27613;BME280;15036;48.094;-1.690;2023-04-04T14:17:22;101779.44;;;30.01;16.28
27613;BME280;15036;48.094;-1.690;2023-04-04T14:19:48;101787.41;;;29.75;16.39
27613;BME280;15036;48.094;-1.690;2023-04-04T14:22:13;101777.16;;;30.03;16.36
27613;BME280;15036;48.094;-1.690;2023-04-04T14:24:39;101774.06;;;30.42;15.71
27613;BME280;15036;48.094;-1.690;2023-04-04T14:27:04;101786.09;;;29.68;16.90
27613;BME280;15036;48.094;-1.690;2023-04-04T14:29:30;101782.81;;;29.61;17.42
27613;BME280;15036;48.094;-1.690;2023-04-04T14:31:55;101778.31;;;28.50;17.71
27613;BME280;15036;48.094;-1.690;2023-04-04T14:34:20;101774.13;;;29.34;17.65
27613;BME280;15036;48.094;-1.690;2023-04-04T14:36:47;101768.13;;;30.06;16.74
27613;BME280;15036;48.094;-1.690;2023-04-04T14:39:12;101771.16;;;29.25;17.27
27613;BME280;15036;48.094;-1.690;2023-04-04T14:41:38;101771.94;;;28.35;18.23
27613;BME280;15036;48.094;-1.690;2023-04-04T14:44:03;101775.38;;;26.43;20.01
27613;BME280;15036;48.094;-1.690;2023-04-04T14:46:29;101778.09;;;26.03;19.52
27613;BME280;15036;48.094;-1.690;2023-04-04T14:48:55;101770.34;;;24.91;21.63
27613;BME280;15036;48.094;-1.690;2023-04-04T14:51:20;101765.81;;;27.10;20.43
27613;BME280;15036;48.094;-1.690;2023-04-04T14:53:45;101762.59;;;27.57;19.36
27613;BME280;15036;48.094;-1.690;2023-04-04T14:56:11;101763.47;;;28.01;18.95
27613;BME280;15036;48.094;-1.690;2023-04-04T14:58:37;101749.94;;;29.09;17.58
27613;BME280;15036;48.094;-1.690;2023-04-04T15:01:04;101758.09;;;29.34;17.50
27613;BME280;15036;48.094;-1.690;2023-04-04T15:03:30;101761.19;;;30.36;16.78
27613;BME280;15036;48.094;-1.690;2023-04-04T15:05:59;101757.97;;;30.74;16.45
27613;BME280;15036;48.094;-1.690;2023-04-04T15:08:24;101741.84;;;29.92;17.14
27613;BME280;15036;48.094;-1.690;2023-04-04T15:10:49;101766.72;;;29.43;17.18
27613;BME280;15036;48.094;-1.690;2023-04-04T15:13:15;101758.28;;;29.19;17.42
27613;BME280;15036;48.094;-1.690;2023-04-04T15:15:40;101746.19;;;28.61;18.15
27613;BME280;15036;48.094;-1.690;2023-04-04T15:18:06;101752.72;;;28.85;17.40
27613;BME280;15036;48.094;-1.690;2023-04-04T15:20:31;101750.19;;;27.68;18.01
27613;BME280;15036;48.094;-1.690;2023-04-04T15:22:56;101748.50;;;28.54;17.35
27613;BME280;15036;48.094;-1.690;2023-04-04T15:25:22;101751.03;;;29.37;16.70
27613;BME280;15036;48.094;-1.690;2023-04-04T15:27:47;101745.44;;;30.16;16.77
27613;BME280;15036;48.094;-1.690;2023-04-04T15:30:13;101750.50;;;30.51;15.96
27613;BME280;15036;48.094;-1.690;2023-04-04T15:32:39;101742.09;;;30.97;15.17
27613;BME280;15036;48.094;-1.690;2023-04-04T15:35:04;101742.78;;;30.06;15.13
27613;BME280;15036;48.094;-1.690;2023-04-04T15:37:30;101747.81;;;29.90;15.74
27613;BME280;15036;48.094;-1.690;2023-04-04T15:39:56;101735.34;;;30.47;16.13
27613;BME280;15036;48.094;-1.690;2023-04-04T15:42:21;101735.31;;;30.66;16.05
27613;BME280;15036;48.094;-1.690;2023-04-04T15:44:47;101737.50;;;31.15;15.69
27613;BME280;15036;48.094;-1.690;2023-04-04T15:47:12;101735.03;;;31.90;15.25
27613;BME280;15036;48.094;-1.690;2023-04-04T15:49:37;101729.50;;;30.76;16.40
27613;BME280;15036;48.094;-1.690;2023-04-04T15:52:03;101737.50;;;31.15;16.35
27613;BME280;15036;48.094;-1.690;2023-04-04T15:54:31;101730.78;;;31.92;16.77
27613;BME280;15036;48.094;-1.690;2023-04-04T15:56:56;101725.88;;;32.95;15.53
27613;BME280;15036;48.094;-1.690;2023-04-04T15:59:22;101722.53;;;31.28;15.89
27613;BME280;15036;48.094;-1.690;2023-04-04T16:01:48;101711.09;;;31.74;15.46
27613;BME280;15036;48.094;-1.690;2023-04-04T16:04:13;101712.78;;;31.75;15.54
27613;BME280;15036;48.094;-1.690;2023-04-04T16:06:38;101713.78;;;31.29;16.03
27613;BME280;15036;48.094;-1.690;2023-04-04T16:09:04;101705.75;;;32.21;15.20
27613;BME280;15036;48.094;-1.690;2023-04-04T16:11:30;101703.31;;;33.03;14.79
27613;BME280;15036;48.094;-1.690;2023-04-04T16:13:55;101702.13;;;33.44;14.50
27613;BME280;15036;48.094;-1.690;2023-04-04T16:16:20;101703.88;;;34.22;13.80
27613;BME280;15036;48.094;-1.690;2023-04-04T16:18:46;101704.84;;;33.09;14.16
27613;BME280;15036;48.094;-1.690;2023-04-04T16:21:11;101701.75;;;33.37;14.50
27613;BME280;15036;48.094;-1.690;2023-04-04T16:23:37;101699.38;;;33.30;14.99
27613;BME280;15036;48.094;-1.690;2023-04-04T16:26:03;101695.03;;;32.54;15.41
27613;BME280;15036;48.094;-1.690;2023-04-04T16:28:29;101701.00;;;31.05;16.41
27613;BME280;15036;48.094;-1.690;2023-04-04T16:30:54;101692.56;;;32.39;15.68
27613;BME280;15036;48.094;-1.690;2023-04-04T16:33:20;101689.84;;;32.48;15.92
27613;BME280;15036;48.094;-1.690;2023-04-04T16:35:48;101683.72;;;33.15;14.76
27613;BME280;15036;48.094;-1.690;2023-04-04T16:38:13;101683.41;;;32.56;15.45
27613;BME280;15036;48.094;-1.690;2023-04-04T16:40:39;101683.03;;;32.49;15.72